createdAt,value
2023-05-25T00:00:32.388Z,17.25
2023-05-25T00:03:36.204Z,17.25
2023-05-25T00:06:41.168Z,17.26
2023-05-25T00:09:44.435Z,17.18
2023-05-25T00:12:47.161Z,17.24
2023-05-25T00:15:50.545Z,17.26
2023-05-25T00:18:53.180Z,17.25
2023-05-25T00:21:55.835Z,17.25
2023-05-25T00:24:58.198Z,17.23
2023-05-25T00:28:04.399Z,17.21
2023-05-25T00:31:06.942Z,17.21
2023-05-25T00:34:09.745Z,17.21
2023-05-25T00:37:12.260Z,17.20
2023-05-25T00:40:18.498Z,17.16
2023-05-25T00:43:20.961Z,17.16
2023-05-25T00:46:23.958Z,17.17
2023-05-25T00:49:26.867Z,17.21
2023-05-25T00:52:30.057Z,17.15
2023-05-25T00:55:38.190Z,17.09
2023-05-25T00:58:45.182Z,17.04
2023-05-25T01:01:49.497Z,17.06
2023-05-25T01:04:54.661Z,17.10
2023-05-25T01:07:59.510Z,17.08
2023-05-25T01:11:03.590Z,17.06
2023-05-25T01:14:06.289Z,17.14
2023-05-25T01:17:10.744Z,17.14
2023-05-25T01:20:13.741Z,17.11
2023-05-25T01:23:17.586Z,17.11
2023-05-25T01:26:22.266Z,17.14
2023-05-25T01:29:26.551Z,17.15
2023-05-25T01:32:29.625Z,17.24
2023-05-25T01:35:33.570Z,17.29
2023-05-25T01:38:37.177Z,17.33
2023-05-25T01:41:40.093Z,17.24
2023-05-25T01:44:43.023Z,17.30
2023-05-25T01:48:24.336Z,17.29
2023-05-25T01:51:42.457Z,17.25
2023-05-25T01:54:51.670Z,17.06
2023-05-25T01:57:59.086Z,16.91
2023-05-25T02:01:02.598Z,16.71
2023-05-25T02:04:06.478Z,16.76
2023-05-25T02:07:08.924Z,16.71
2023-05-25T02:10:11.658Z,16.71
2023-05-25T02:13:14.102Z,16.62
2023-05-25T02:16:17.159Z,16.62
2023-05-25T02:19:20.957Z,16.68
2023-05-25T02:22:23.995Z,16.65
2023-05-25T02:25:26.552Z,16.66
2023-05-25T02:28:30.430Z,16.59
2023-05-25T02:31:33.234Z,16.51
2023-05-25T02:34:36.795Z,16.38
2023-05-25T02:37:39.670Z,16.33
2023-05-25T02:40:42.836Z,16.30
2023-05-25T02:43:45.367Z,16.29
2023-05-25T02:46:47.830Z,16.31
2023-05-25T02:49:53.397Z,16.31
2023-05-25T02:52:55.820Z,16.27
2023-05-25T02:55:58.567Z,16.23
2023-05-25T02:59:01.250Z,16.16
2023-05-25T03:02:04.734Z,16.14
2023-05-25T03:05:08.633Z,16.05
2023-05-25T03:08:11.707Z,16.07
2023-05-25T03:11:14.761Z,16.06
2023-05-25T03:14:17.796Z,16.01
2023-05-25T03:17:20.688Z,16.01
2023-05-25T03:20:24.741Z,15.96
2023-05-25T03:23:27.389Z,15.96
2023-05-25T03:26:30.685Z,16.03
2023-05-25T03:29:33.231Z,16.12
2023-05-25T03:32:36.268Z,16.17
2023-05-25T03:35:39.217Z,16.17
2023-05-25T03:38:42.706Z,16.16
2023-05-25T03:41:45.308Z,16.18
2023-05-25T03:47:17.760Z,16.70
2023-05-25T03:50:21.155Z,16.70
2023-05-25T03:53:23.569Z,16.23
2023-05-25T03:56:26.391Z,16.29
2023-05-25T03:59:28.847Z,16.28
2023-05-25T04:02:31.617Z,16.30
2023-05-25T04:05:34.557Z,16.39
2023-05-25T04:08:37.000Z,16.52
2023-05-25T04:11:40.409Z,16.80
2023-05-25T04:14:43.006Z,17.19
2023-05-25T04:17:45.908Z,17.50
2023-05-25T04:20:48.316Z,17.60
2023-05-25T04:23:51.292Z,17.30
2023-05-25T04:26:56.600Z,17.02
2023-05-25T04:29:59.376Z,17.08
2023-05-25T04:33:02.875Z,17.47
2023-05-25T04:36:06.178Z,17.84
2023-05-25T04:39:09.207Z,17.96
2023-05-25T04:42:12.935Z,18.06
2023-05-25T04:45:18.412Z,18.21
2023-05-25T04:48:21.634Z,17.92
2023-05-25T04:51:24.283Z,18.10
2023-05-25T04:54:27.060Z,18.20
2023-05-25T04:57:31.427Z,18.25
2023-05-25T05:00:34.401Z,18.06
2023-05-25T05:03:38.099Z,18.42
2023-05-25T05:06:40.899Z,18.57
2023-05-25T05:09:43.428Z,18.37
2023-05-25T05:12:46.326Z,18.10
2023-05-25T05:15:48.811Z,18.26
2023-05-25T05:18:51.480Z,18.24
2023-05-25T05:21:53.867Z,18.39
2023-05-25T05:24:56.925Z,18.56
2023-05-25T05:27:59.326Z,18.90
2023-05-25T05:31:02.328Z,18.85
2023-05-25T05:34:05.161Z,18.80
2023-05-25T05:37:07.935Z,18.80
2023-05-25T05:40:11.830Z,18.77
2023-05-25T05:43:14.908Z,18.93
2023-05-25T05:46:17.795Z,19.12
2023-05-25T05:49:20.484Z,19.39
2023-05-25T05:52:22.973Z,19.53
2023-05-25T05:55:26.333Z,19.81
2023-05-25T05:58:29.366Z,19.61
2023-05-25T06:01:32.975Z,19.75
2023-05-25T06:04:35.838Z,19.82
2023-05-25T06:07:38.762Z,19.99
2023-05-25T06:10:42.417Z,20.35
2023-05-25T06:13:46.458Z,20.52
2023-05-25T06:16:51.200Z,20.46
2023-05-25T06:19:54.179Z,20.25
2023-05-25T06:23:01.475Z,19.92
2023-05-25T06:26:05.595Z,20.25
2023-05-25T06:29:08.344Z,20.30
2023-05-25T06:32:11.075Z,20.68
2023-05-25T06:35:19.601Z,20.36
2023-05-25T06:38:23.956Z,20.35
2023-05-25T06:41:27.787Z,20.67
2023-05-25T06:44:31.100Z,20.82
2023-05-25T06:47:37.301Z,20.85
2023-05-25T06:50:40.162Z,20.84
2023-05-25T06:53:43.694Z,21.03
2023-05-25T06:56:46.431Z,21.27
2023-05-25T06:59:49.083Z,21.17
2023-05-25T07:02:51.468Z,21.42
2023-05-25T07:05:54.275Z,21.18
2023-05-25T07:08:56.740Z,21.15
2023-05-25T07:11:59.486Z,21.56
2023-05-25T07:15:01.923Z,21.53
2023-05-25T07:18:04.934Z,21.83
2023-05-25T07:21:09.995Z,21.96
2023-05-25T07:24:12.727Z,21.95
2023-05-25T07:27:15.157Z,21.56
2023-05-25T07:30:17.842Z,21.37
2023-05-25T07:33:20.522Z,21.56
2023-05-25T07:36:24.935Z,21.83
2023-05-25T07:39:27.438Z,21.56
2023-05-25T07:42:34.231Z,21.27
2023-05-25T07:45:36.624Z,21.49
2023-05-25T07:48:39.520Z,22.03
2023-05-25T07:51:43.534Z,22.17
2023-05-25T07:54:46.629Z,22.41
2023-05-25T07:57:49.218Z,22.55
2023-05-25T08:00:51.997Z,22.74
2023-05-25T08:03:55.105Z,22.85
2023-05-25T08:06:57.625Z,22.71
2023-05-25T08:10:03.331Z,22.22
2023-05-25T08:13:05.895Z,22.42
2023-05-25T08:16:09.173Z,22.74
2023-05-25T08:19:11.571Z,22.71
2023-05-25T08:22:14.237Z,22.74
2023-05-25T08:25:16.684Z,22.87
2023-05-25T08:28:22.463Z,22.93
2023-05-25T08:31:24.883Z,23.32
2023-05-25T08:34:29.149Z,23.21
2023-05-25T08:37:32.393Z,23.23
2023-05-25T08:40:35.237Z,24.02
2023-05-25T08:43:37.750Z,23.89
2023-05-25T08:46:40.995Z,23.43
2023-05-25T08:49:45.199Z,23.34
2023-05-25T08:52:52.465Z,23.11
2023-05-25T08:55:59.523Z,23.28
2023-05-25T08:59:27.212Z,23.71
2023-05-25T09:02:38.803Z,23.30
2023-05-25T09:05:42.476Z,23.51
2023-05-25T09:08:45.549Z,24.02
2023-05-25T09:11:48.533Z,23.76
2023-05-25T09:14:51.448Z,24.10
2023-05-25T09:17:54.373Z,24.09
2023-05-25T09:20:57.390Z,24.24
2023-05-25T09:24:00.404Z,24.36
2023-05-25T09:27:05.940Z,24.40
2023-05-25T09:30:09.611Z,23.81
2023-05-25T09:33:13.262Z,23.98
2023-05-25T09:36:16.844Z,23.84
2023-05-25T09:39:21.579Z,23.80
2023-05-25T09:42:26.096Z,23.62
2023-05-25T09:45:28.473Z,23.70
2023-05-25T09:48:31.512Z,24.00
2023-05-25T09:51:34.603Z,24.39
2023-05-25T09:54:38.424Z,24.78
2023-05-25T09:57:40.804Z,25.17
2023-05-25T10:00:43.686Z,24.96
2023-05-25T10:07:13.676Z,25.41
2023-05-25T10:10:16.785Z,25.46
2023-05-25T10:13:23.257Z,25.02
2023-05-25T10:16:28.002Z,24.82
2023-05-25T10:19:37.664Z,24.27
2023-05-25T10:22:49.193Z,24.45
2023-05-25T10:25:59.398Z,23.93
2023-05-25T10:29:04.554Z,23.92
2023-05-25T10:32:08.836Z,24.03
2023-05-25T10:35:12.231Z,23.50
2023-05-25T10:38:15.342Z,23.21
2023-05-25T10:41:20.351Z,23.51
2023-05-25T10:44:23.576Z,24.16
2023-05-25T10:47:26.623Z,24.84
2023-05-25T10:50:34.503Z,25.15
2023-05-25T10:53:37.196Z,25.21
2023-05-25T10:57:28.649Z,24.99
2023-05-25T11:00:31.894Z,24.57
2023-05-25T11:04:13.522Z,24.83
2023-05-25T11:07:19.399Z,24.71
2023-05-25T11:10:54.177Z,24.57
2023-05-25T11:14:01.604Z,24.25
2023-05-25T11:17:05.921Z,23.95
2023-05-25T11:20:23.756Z,23.88
2023-05-25T11:23:26.170Z,24.02
2023-05-25T11:26:30.026Z,24.08
2023-05-25T11:29:32.510Z,23.93
2023-05-25T11:32:39.640Z,23.89
2023-05-25T11:35:45.409Z,24.18
2023-05-25T11:39:02.512Z,23.88
2023-05-25T11:42:11.210Z,23.52
2023-05-25T11:45:17.766Z,23.57
2023-05-25T11:48:20.411Z,23.99
2023-05-25T11:51:24.800Z,24.32
2023-05-25T11:54:28.964Z,24.82
2023-05-25T11:57:31.694Z,24.56
2023-05-25T12:00:34.283Z,24.51
2023-05-25T12:03:37.309Z,24.44
2023-05-25T12:06:40.413Z,24.37
2023-05-25T12:09:43.251Z,24.07
2023-05-25T12:12:50.781Z,24.04
2023-05-25T12:16:00.236Z,24.41
2023-05-25T12:19:03.425Z,24.67
2023-05-25T12:22:06.554Z,24.93
2023-05-25T12:25:10.974Z,25.10
2023-05-25T12:28:15.665Z,24.84
2023-05-25T12:31:23.387Z,24.88
2023-05-25T12:34:27.897Z,24.77
2023-05-25T12:37:30.406Z,24.25
2023-05-25T12:40:33.085Z,23.98
2023-05-25T12:43:43.699Z,23.67
2023-05-25T12:46:46.638Z,23.47
2023-05-25T12:49:52.012Z,23.29
2023-05-25T12:53:01.652Z,23.25
2023-05-25T12:56:04.575Z,23.27
2023-05-25T12:59:16.512Z,23.42
2023-05-25T13:02:19.126Z,23.39
2023-05-25T13:05:24.171Z,23.67
2023-05-25T13:08:26.670Z,23.98
2023-05-25T13:11:29.386Z,24.32
2023-05-25T13:14:31.808Z,24.34
2023-05-25T13:17:35.633Z,24.39
2023-05-25T13:20:38.445Z,24.27
2023-05-25T13:23:41.181Z,24.09
2023-05-25T13:26:48.480Z,23.98
2023-05-25T13:29:53.378Z,23.99
2023-05-25T13:32:55.884Z,24.13
2023-05-25T13:35:58.958Z,24.37
2023-05-25T13:39:05.225Z,24.76
2023-05-25T13:42:07.989Z,24.90
2023-05-25T13:45:34.531Z,25.09
2023-05-25T13:48:58.051Z,24.58
2023-05-25T13:52:21.159Z,24.18
2023-05-25T13:55:44.076Z,23.90
2023-05-25T13:58:47.142Z,24.12
2023-05-25T14:01:50.157Z,24.52
2023-05-25T14:04:52.946Z,24.63
2023-05-25T14:07:56.499Z,24.80
2023-05-25T14:10:59.278Z,25.06
2023-05-25T14:14:01.736Z,25.22
2023-05-25T14:17:04.568Z,25.05
2023-05-25T14:20:07.703Z,25.31
2023-05-25T14:23:13.182Z,25.19
2023-05-25T14:26:17.042Z,25.27
2023-05-25T14:29:19.761Z,25.22
2023-05-25T14:32:22.168Z,24.89
2023-05-25T14:35:24.864Z,24.74
2023-05-25T14:38:27.682Z,24.70
2023-05-25T14:41:30.374Z,24.54
2023-05-25T14:44:32.860Z,24.54
2023-05-25T14:47:35.616Z,24.48
2023-05-25T14:50:38.120Z,24.41
2023-05-25T14:53:40.778Z,24.13
2023-05-25T14:56:43.177Z,24.24
2023-05-25T14:59:45.946Z,24.45
2023-05-25T15:02:48.502Z,24.61
2023-05-25T15:05:51.627Z,24.64
2023-05-25T15:08:54.021Z,24.82
2023-05-25T15:11:56.752Z,25.02
2023-05-25T15:14:59.634Z,24.97
2023-05-25T15:18:02.555Z,25.06
2023-05-25T15:21:05.661Z,25.11
2023-05-25T15:24:08.955Z,25.09
2023-05-25T15:27:11.339Z,25.12
2023-05-25T15:30:14.037Z,25.16
2023-05-25T15:33:16.400Z,25.07
2023-05-25T15:36:19.075Z,25.03
2023-05-25T15:39:21.526Z,25.10
2023-05-25T15:42:24.296Z,24.94
2023-05-25T15:45:26.763Z,25.02
2023-05-25T15:48:29.421Z,25.04
2023-05-25T15:51:32.672Z,25.05
2023-05-25T15:54:35.575Z,25.10
2023-05-25T15:57:37.953Z,25.16
2023-05-25T16:00:40.608Z,25.09
2023-05-25T16:03:43.429Z,24.74
2023-05-25T16:06:48.468Z,24.69
2023-05-25T16:09:51.282Z,24.74
2023-05-25T16:12:53.612Z,24.69
2023-05-25T16:15:56.363Z,24.68
2023-05-25T16:18:58.857Z,24.65
2023-05-25T16:22:01.558Z,24.63
2023-05-25T16:25:03.993Z,24.58
2023-05-25T16:28:06.637Z,24.54
2023-05-25T16:31:09.145Z,24.42
2023-05-25T16:34:11.778Z,24.28
2023-05-25T16:37:14.036Z,24.16
2023-05-25T16:40:16.899Z,24.15
2023-05-25T16:43:19.550Z,24.00
2023-05-25T16:46:22.267Z,24.06
2023-05-25T16:49:24.790Z,23.97
2023-05-25T16:52:27.540Z,23.96
2023-05-25T16:55:30.122Z,23.79
2023-05-25T16:58:32.812Z,23.76
2023-05-25T17:01:35.346Z,23.66
2023-05-25T17:04:38.039Z,23.63
2023-05-25T17:07:40.944Z,23.63
2023-05-25T17:10:47.887Z,23.45
2023-05-25T17:13:50.451Z,23.41
2023-05-25T17:16:53.424Z,23.40
2023-05-25T17:19:55.876Z,23.25
2023-05-25T17:22:58.582Z,23.24
2023-05-25T17:26:01.209Z,23.17
2023-05-25T17:29:06.076Z,23.17
2023-05-25T17:32:08.706Z,23.10
2023-05-25T17:35:11.407Z,23.07
2023-05-25T17:38:13.668Z,22.95
2023-05-25T17:41:17.051Z,22.86
2023-05-25T17:44:19.297Z,22.76
2023-05-25T17:47:22.506Z,22.68
2023-05-25T17:50:25.079Z,22.62
2023-05-25T17:53:27.729Z,22.53
2023-05-25T17:56:30.193Z,22.46
2023-05-25T17:59:32.957Z,22.37
2023-05-25T18:02:35.506Z,22.27
2023-05-25T18:05:38.303Z,22.19
2023-05-25T18:08:40.670Z,22.12
2023-05-25T18:11:43.386Z,22.01
2023-05-25T18:14:45.889Z,21.95
2023-05-25T18:17:48.719Z,21.94
2023-05-25T18:20:51.435Z,21.86
2023-05-25T18:23:54.260Z,21.77
2023-05-25T18:26:58.054Z,21.69
2023-05-25T18:30:00.774Z,21.69
2023-05-25T18:33:03.254Z,21.61
2023-05-25T18:36:06.124Z,21.56
2023-05-25T18:39:08.657Z,21.45
2023-05-25T18:42:11.380Z,21.42
2023-05-25T18:45:14.132Z,21.37
2023-05-25T18:48:18.964Z,21.32
2023-05-25T18:51:23.224Z,21.28
2023-05-25T18:54:26.010Z,21.27
2023-05-25T18:57:28.764Z,21.22
2023-05-25T19:00:31.402Z,21.21
2023-05-25T19:03:34.092Z,21.13
2023-05-25T19:06:37.920Z,21.11
2023-05-25T19:09:42.269Z,21.11
2023-05-25T19:12:45.650Z,21.05
2023-05-25T19:15:48.597Z,20.98
2023-05-25T19:18:51.912Z,20.91
2023-05-25T19:21:55.216Z,20.86
2023-05-25T19:25:01.091Z,20.84
2023-05-25T19:28:04.986Z,20.79
2023-05-25T19:31:07.789Z,20.74
2023-05-25T19:34:10.552Z,20.71
2023-05-25T19:37:13.719Z,20.69
2023-05-25T19:40:16.228Z,20.65
2023-05-25T19:43:18.962Z,20.60
2023-05-25T19:46:21.544Z,20.55
2023-05-25T19:49:24.296Z,20.56
2023-05-25T19:52:29.850Z,20.48
2023-05-25T19:55:33.681Z,20.42
2023-05-25T19:58:36.394Z,20.35
2023-05-25T20:01:39.186Z,20.38
2023-05-25T20:04:42.108Z,20.32
2023-05-25T20:07:45.473Z,20.25
2023-05-25T20:10:48.244Z,20.25
2023-05-25T20:13:51.088Z,20.23
2023-05-25T20:16:55.779Z,20.18
2023-05-25T20:20:00.667Z,20.13
2023-05-25T20:23:03.643Z,20.12
2023-05-25T20:26:06.225Z,20.10
2023-05-25T20:29:09.016Z,20.09
2023-05-25T20:32:11.609Z,20.07
2023-05-25T20:35:17.144Z,20.04
2023-05-25T20:38:19.500Z,19.99
2023-05-25T20:41:22.779Z,19.97
2023-05-25T20:44:25.662Z,19.95
2023-05-25T20:47:28.316Z,19.88
2023-05-25T20:50:31.457Z,19.90
2023-05-25T20:53:34.159Z,19.87
2023-05-25T20:56:36.556Z,19.85
2023-05-25T20:59:39.339Z,19.77
2023-05-25T21:02:44.987Z,19.76
2023-05-25T21:05:47.863Z,19.74
2023-05-25T21:08:50.569Z,19.69
2023-05-25T21:11:53.359Z,19.70
2023-05-25T21:14:56.013Z,19.66
2023-05-25T21:17:58.811Z,19.63
2023-05-25T21:21:01.725Z,19.56
2023-05-25T21:24:05.048Z,19.49
2023-05-25T21:27:07.801Z,19.45
2023-05-25T21:30:11.043Z,19.40
2023-05-25T21:33:13.594Z,19.36
2023-05-25T21:36:16.806Z,19.38
2023-05-25T21:39:19.405Z,19.37
2023-05-25T21:42:22.093Z,19.36
2023-05-25T21:45:24.962Z,19.35
2023-05-25T21:48:27.613Z,19.36
2023-05-25T21:51:30.184Z,19.36
2023-05-25T21:54:32.965Z,19.36
2023-05-25T21:57:35.504Z,19.42
2023-05-25T22:00:38.289Z,19.39
2023-05-25T22:03:40.948Z,19.32
2023-05-25T22:06:43.438Z,19.27
2023-05-25T22:09:47.842Z,19.21
2023-05-25T22:12:50.464Z,19.11
2023-05-25T22:15:53.222Z,19.06
2023-05-25T22:18:56.000Z,19.07
2023-05-25T22:21:58.730Z,18.92
2023-05-25T22:25:01.624Z,18.80
2023-05-25T22:28:04.401Z,18.73
2023-05-25T22:31:06.915Z,18.61
2023-05-25T22:34:09.677Z,18.58
2023-05-25T22:37:12.195Z,18.47
2023-05-25T22:40:14.966Z,18.43
2023-05-25T22:43:17.526Z,18.35
2023-05-25T22:46:20.921Z,18.25
2023-05-25T22:49:23.446Z,18.20
2023-05-25T22:52:26.067Z,18.16
2023-05-25T22:55:28.461Z,18.12
2023-05-25T22:58:31.155Z,18.12
2023-05-25T23:01:33.605Z,18.09
2023-05-25T23:04:36.474Z,18.04
2023-05-25T23:07:38.925Z,18.01
2023-05-25T23:10:41.700Z,17.96
2023-05-25T23:13:44.143Z,17.93
2023-05-25T23:16:48.654Z,17.90
2023-05-25T23:19:53.453Z,17.82
2023-05-25T23:22:56.216Z,17.74
2023-05-25T23:25:58.715Z,17.68
2023-05-25T23:29:01.443Z,17.64
2023-05-25T23:32:04.200Z,17.66
2023-05-25T23:35:07.452Z,17.59
2023-05-25T23:38:09.840Z,17.56
2023-05-25T23:41:12.769Z,17.60
2023-05-25T23:44:15.802Z,17.52
2023-05-25T23:47:18.357Z,17.53
2023-05-25T23:50:20.718Z,17.48
2023-05-25T23:53:23.462Z,17.44
2023-05-25T23:56:27.860Z,17.37
2023-05-25T23:59:30.739Z,17.32
